sensor_id;sensor_type;location;lat;lon;timestamp;pressure;altitude;pressure_sealevel;temperature;humidity
50310;BME280;36207;51.850;21.698;2023-05-25T00:01:31;100199.94;;;15.40;65.46
50310;BME280;36207;51.850;21.698;2023-05-25T00:03:59;100204.84;;;15.40;65.39
50310;BME280;36207;51.850;21.698;2023-05-25T00:06:27;100206.45;;;15.39;65.42
50310;BME280;36207;51.850;21.698;2023-05-25T00:08:57;100204.91;;;15.38;65.36
50310;BME280;36207;51.850;21.698;2023-05-25T00:11:24;100202.75;;;15.39;65.54
50310;BME280;36207;51.850;21.698;2023-05-25T00:13:51;100203.38;;;15.40;65.61
50310;BME280;36207;51.850;21.698;2023-05-25T00:16:17;100205.52;;;15.41;65.75
50310;BME280;36207;51.850;21.698;2023-05-25T00:18:43;100207.14;;;15.41;65.74
50310;BME280;36207;51.850;21.698;2023-05-25T00:21:10;100208.09;;;15.38;65.63
50310;BME280;36207;51.850;21.698;2023-05-25T00:23:36;100211.77;;;15.36;65.57
50310;BME280;36207;51.850;21.698;2023-05-25T00:26:02;100216.58;;;15.35;65.76
50310;BME280;36207;51.850;21.698;2023-05-25T00:28:28;100216.77;;;15.34;66.01
50310;BME280;36207;51.850;21.698;2023-05-25T00:30:54;100216.70;;;15.32;65.87
50310;BME280;36207;51.850;21.698;2023-05-25T00:33:21;100223.23;;;15.29;65.94
50310;BME280;36207;51.850;21.698;2023-05-25T00:35:47;100222.36;;;15.26;65.86
50310;BME280;36207;51.850;21.698;2023-05-25T00:38:14;100225.75;;;15.23;65.98
50310;BME280;36207;51.850;21.698;2023-05-25T00:40:41;100225.59;;;15.22;65.90
50310;BME280;36207;51.850;21.698;2023-05-25T00:43:07;100226.20;;;15.21;66.12
50310;BME280;36207;51.850;21.698;2023-05-25T00:45:34;100227.58;;;15.19;66.29
50310;BME280;36207;51.850;21.698;2023-05-25T00:48:00;100225.11;;;15.17;66.11
50310;BME280;36207;51.850;21.698;2023-05-25T00:50:37;100226.27;;;15.15;66.29
50310;BME280;36207;51.850;21.698;2023-05-25T00:53:05;100226.27;;;15.15;66.41
50310;BME280;36207;51.850;21.698;2023-05-25T00:55:35;100225.66;;;15.16;66.48
50310;BME280;36207;51.850;21.698;2023-05-25T00:58:03;100228.42;;;15.15;66.24
50310;BME280;36207;51.850;21.698;2023-05-25T01:00:31;100227.14;;;15.13;66.48
50310;BME280;36207;51.850;21.698;2023-05-25T01:02:58;100227.83;;;15.09;66.54
50310;BME280;36207;51.850;21.698;2023-05-25T01:05:26;100227.16;;;15.04;66.60
50310;BME280;36207;51.850;21.698;2023-05-25T01:07:59;100231.90;;;15.00;66.44
50310;BME280;36207;51.850;21.698;2023-05-25T01:10:27;100228.42;;;14.97;66.54
50310;BME280;36207;51.850;21.698;2023-05-25T01:12:57;100232.60;;;14.96;66.68
50310;BME280;36207;51.850;21.698;2023-05-25T01:15:25;100231.21;;;14.93;66.59
50310;BME280;36207;51.850;21.698;2023-05-25T01:17:51;100232.44;;;14.86;66.50
50310;BME280;36207;51.850;21.698;2023-05-25T01:20:18;100228.46;;;14.82;66.65
50310;BME280;36207;51.850;21.698;2023-05-25T01:23:12;100230.27;;;14.82;67.09
50310;BME280;36207;51.850;21.698;2023-05-25T01:25:43;100226.77;;;14.84;67.14
50310;BME280;36207;51.850;21.698;2023-05-25T01:28:20;100225.66;;;14.86;67.37
50310;BME280;36207;51.850;21.698;2023-05-25T01:30:48;100228.05;;;14.87;67.49
50310;BME280;36207;51.850;21.698;2023-05-25T01:33:17;100229.50;;;14.85;67.44
50310;BME280;36207;51.850;21.698;2023-05-25T01:35:44;100230.98;;;14.84;67.64
50310;BME280;36207;51.850;21.698;2023-05-25T01:38:12;100230.20;;;14.84;67.66
50310;BME280;36207;51.850;21.698;2023-05-25T01:40:37;100229.16;;;14.84;67.85
50310;BME280;36207;51.850;21.698;2023-05-25T01:43:03;100225.94;;;14.84;67.84
50310;BME280;36207;51.850;21.698;2023-05-25T01:45:30;100228.25;;;14.83;67.73
50310;BME280;36207;51.850;21.698;2023-05-25T01:50:53;100229.77;;;14.81;67.73
50310;BME280;36207;51.850;21.698;2023-05-25T01:53:30;100226.42;;;14.82;67.59
50310;BME280;36207;51.850;21.698;2023-05-25T01:56:01;100225.55;;;14.82;68.01
50310;BME280;36207;51.850;21.698;2023-05-25T01:58:32;100224.71;;;14.80;67.98
50310;BME280;36207;51.850;21.698;2023-05-25T02:01:00;100222.98;;;14.79;68.15
50310;BME280;36207;51.850;21.698;2023-05-25T02:03:27;100227.91;;;14.80;67.94
50310;BME280;36207;51.850;21.698;2023-05-25T02:05:53;100227.80;;;14.81;68.26
50310;BME280;36207;51.850;21.698;2023-05-25T02:08:19;100228.95;;;14.79;67.86
50310;BME280;36207;51.850;21.698;2023-05-25T02:10:46;100226.42;;;14.76;68.09
50310;BME280;36207;51.850;21.698;2023-05-25T02:13:12;100231.38;;;14.74;68.00
50310;BME280;36207;51.850;21.698;2023-05-25T02:15:38;100232.14;;;14.73;68.01
50310;BME280;36207;51.850;21.698;2023-05-25T02:18:04;100233.81;;;14.74;68.00
50310;BME280;36207;51.850;21.698;2023-05-25T02:20:31;100237.04;;;14.76;68.32
50310;BME280;36207;51.850;21.698;2023-05-25T02:22:57;100234.06;;;14.78;68.37
50310;BME280;36207;51.850;21.698;2023-05-25T02:25:23;100234.86;;;14.77;68.52
50310;BME280;36207;51.850;21.698;2023-05-25T02:27:49;100233.77;;;14.76;68.43
50310;BME280;36207;51.850;21.698;2023-05-25T02:30:15;100236.04;;;14.74;68.64
50310;BME280;36207;51.850;21.698;2023-05-25T02:32:41;100237.10;;;14.70;68.61
50310;BME280;36207;51.850;21.698;2023-05-25T02:35:07;100237.20;;;14.66;68.68
50310;BME280;36207;51.850;21.698;2023-05-25T02:37:33;100236.87;;;14.65;68.60
50310;BME280;36207;51.850;21.698;2023-05-25T02:39:59;100239.76;;;14.64;68.51
50310;BME280;36207;51.850;21.698;2023-05-25T02:42:25;100238.52;;;14.64;68.51
50310;BME280;36207;51.850;21.698;2023-05-25T02:44:51;100236.20;;;14.65;68.52
50310;BME280;36207;51.850;21.698;2023-05-25T02:47:18;100236.91;;;14.64;68.54
50310;BME280;36207;51.850;21.698;2023-05-25T02:49:44;100230.86;;;14.61;68.68
50310;BME280;36207;51.850;21.698;2023-05-25T02:52:10;100233.24;;;14.60;68.77
50310;BME280;36207;51.850;21.698;2023-05-25T02:54:36;100236.14;;;14.61;68.77
50310;BME280;36207;51.850;21.698;2023-05-25T02:57:03;100238.02;;;14.61;68.81
50310;BME280;36207;51.850;21.698;2023-05-25T02:59:29;100238.27;;;14.61;68.68
50310;BME280;36207;51.850;21.698;2023-05-25T03:01:57;100243.25;;;14.62;69.11
50310;BME280;36207;51.850;21.698;2023-05-25T03:04:24;100246.45;;;14.62;68.89
50310;BME280;36207;51.850;21.698;2023-05-25T03:06:50;100247.90;;;14.64;69.02
50310;BME280;36207;51.850;21.698;2023-05-25T03:09:16;100251.80;;;14.66;69.19
50310;BME280;36207;51.850;21.698;2023-05-25T03:11:42;100251.46;;;14.65;69.11
50310;BME280;36207;51.850;21.698;2023-05-25T03:14:09;100251.42;;;14.66;69.13
50310;BME280;36207;51.850;21.698;2023-05-25T03:16:35;100252.29;;;14.65;69.06
50310;BME280;36207;51.850;21.698;2023-05-25T03:19:06;100256.46;;;14.64;68.98
50310;BME280;36207;51.850;21.698;2023-05-25T03:21:33;100258.58;;;14.64;69.13
50310;BME280;36207;51.850;21.698;2023-05-25T03:23:59;100257.88;;;14.65;69.06
50310;BME280;36207;51.850;21.698;2023-05-25T03:26:25;100252.50;;;14.67;69.37
50310;BME280;36207;51.850;21.698;2023-05-25T03:28:51;100253.89;;;14.69;69.24
50310;BME280;36207;51.850;21.698;2023-05-25T03:31:18;100251.84;;;14.72;69.24
50310;BME280;36207;51.850;21.698;2023-05-25T03:33:47;100248.50;;;14.76;69.37
50310;BME280;36207;51.850;21.698;2023-05-25T03:36:13;100247.96;;;14.79;69.48
50310;BME280;36207;51.850;21.698;2023-05-25T03:38:43;100250.84;;;14.82;69.52
50310;BME280;36207;51.850;21.698;2023-05-25T03:41:09;100257.30;;;14.85;69.38
50310;BME280;36207;51.850;21.698;2023-05-25T03:43:35;100260.98;;;14.87;69.25
50310;BME280;36207;51.850;21.698;2023-05-25T03:46:01;100261.12;;;14.88;69.45
50310;BME280;36207;51.850;21.698;2023-05-25T03:48:27;100264.79;;;14.87;69.21
50310;BME280;36207;51.850;21.698;2023-05-25T03:50:53;100262.80;;;14.87;69.60
50310;BME280;36207;51.850;21.698;2023-05-25T03:53:19;100266.81;;;14.87;69.47
50310;BME280;36207;51.850;21.698;2023-05-25T03:55:45;100270.33;;;14.87;69.65
50310;BME280;36207;51.850;21.698;2023-05-25T03:58:11;100272.61;;;14.87;69.67
50310;BME280;36207;51.850;21.698;2023-05-25T04:00:38;100273.63;;;14.88;69.80
50310;BME280;36207;51.850;21.698;2023-05-25T04:03:04;100274.45;;;14.87;69.80
50310;BME280;36207;51.850;21.698;2023-05-25T04:05:31;100274.68;;;14.87;69.69
50310;BME280;36207;51.850;21.698;2023-05-25T04:07:57;100273.39;;;14.86;69.71
50310;BME280;36207;51.850;21.698;2023-05-25T04:10:24;100274.35;;;14.89;69.71
50310;BME280;36207;51.850;21.698;2023-05-25T04:12:50;100279.66;;;14.92;69.83
50310;BME280;36207;51.850;21.698;2023-05-25T04:15:16;100285.55;;;14.94;69.88
50310;BME280;36207;51.850;21.698;2023-05-25T04:17:42;100289.02;;;14.95;70.18
50310;BME280;36207;51.850;21.698;2023-05-25T04:20:08;100289.44;;;14.94;70.01
50310;BME280;36207;51.850;21.698;2023-05-25T04:22:35;100290.14;;;14.94;70.12
50310;BME280;36207;51.850;21.698;2023-05-25T04:25:07;100290.14;;;14.94;70.30
50310;BME280;36207;51.850;21.698;2023-05-25T04:27:33;100289.60;;;14.94;70.44
50310;BME280;36207;51.850;21.698;2023-05-25T04:29:59;100293.29;;;14.98;70.57
50310;BME280;36207;51.850;21.698;2023-05-25T04:32:25;100293.35;;;15.00;70.27
50310;BME280;36207;51.850;21.698;2023-05-25T04:34:55;100294.64;;;15.01;70.10
50310;BME280;36207;51.850;21.698;2023-05-25T04:37:22;100301.35;;;15.04;70.10
50310;BME280;36207;51.850;21.698;2023-05-25T04:39:48;100304.42;;;15.07;70.20
50310;BME280;36207;51.850;21.698;2023-05-25T04:42:14;100301.91;;;15.10;70.32
50310;BME280;36207;51.850;21.698;2023-05-25T04:44:44;100300.59;;;15.13;70.35
50310;BME280;36207;51.850;21.698;2023-05-25T04:47:10;100298.08;;;15.16;70.33
50310;BME280;36207;51.850;21.698;2023-05-25T04:49:36;100298.66;;;15.17;70.51
50310;BME280;36207;51.850;21.698;2023-05-25T04:52:03;100300.31;;;15.19;70.34
50310;BME280;36207;51.850;21.698;2023-05-25T04:54:29;100302.64;;;15.22;70.20
50310;BME280;36207;51.850;21.698;2023-05-25T04:56:55;100299.87;;;15.24;70.21
50310;BME280;36207;51.850;21.698;2023-05-25T04:59:21;100301.55;;;15.28;70.32
50310;BME280;36207;51.850;21.698;2023-05-25T05:01:48;100305.23;;;15.28;70.18
50310;BME280;36207;51.850;21.698;2023-05-25T05:04:14;100309.35;;;15.27;70.44
50310;BME280;36207;51.850;21.698;2023-05-25T05:06:41;100316.20;;;15.27;70.37
50310;BME280;36207;51.850;21.698;2023-05-25T05:09:07;100317.11;;;15.28;70.23
50310;BME280;36207;51.850;21.698;2023-05-25T05:11:33;100318.52;;;15.30;70.22
50310;BME280;36207;51.850;21.698;2023-05-25T05:13:59;100318.86;;;15.33;70.33
50310;BME280;36207;51.850;21.698;2023-05-25T05:16:25;100322.51;;;15.36;70.43
50310;BME280;36207;51.850;21.698;2023-05-25T05:18:51;100316.77;;;15.36;70.62
50310;BME280;36207;51.850;21.698;2023-05-25T05:21:17;100314.90;;;15.35;70.35
50310;BME280;36207;51.850;21.698;2023-05-25T05:23:43;100315.19;;;15.37;70.36
50310;BME280;36207;51.850;21.698;2023-05-25T05:26:09;100321.65;;;15.40;70.48
50310;BME280;36207;51.850;21.698;2023-05-25T05:28:36;100325.60;;;15.43;70.52
50310;BME280;36207;51.850;21.698;2023-05-25T05:31:02;100328.45;;;15.46;70.72
50310;BME280;36207;51.850;21.698;2023-05-25T05:33:29;100329.02;;;15.45;70.53
50310;BME280;36207;51.850;21.698;2023-05-25T05:35:55;100327.20;;;15.45;70.51
50310;BME280;36207;51.850;21.698;2023-05-25T05:38:22;100326.71;;;15.45;70.52
50310;BME280;36207;51.850;21.698;2023-05-25T05:40:48;100330.45;;;15.44;70.72
50310;BME280;36207;51.850;21.698;2023-05-25T05:43:14;100332.29;;;15.40;70.83
50310;BME280;36207;51.850;21.698;2023-05-25T05:45:42;100333.73;;;15.38;70.86
50310;BME280;36207;51.850;21.698;2023-05-25T05:48:08;100334.48;;;15.36;70.87
50310;BME280;36207;51.850;21.698;2023-05-25T05:50:37;100332.64;;;15.35;70.91
50310;BME280;36207;51.850;21.698;2023-05-25T05:53:04;100333.23;;;15.33;70.75
50310;BME280;36207;51.850;21.698;2023-05-25T05:55:31;100336.96;;;15.33;70.76
50310;BME280;36207;51.850;21.698;2023-05-25T05:57:58;100338.40;;;15.33;71.15
50310;BME280;36207;51.850;21.698;2023-05-25T06:00:24;100337.94;;;15.31;70.81
50310;BME280;36207;51.850;21.698;2023-05-25T06:02:50;100344.40;;;15.32;70.91
50310;BME280;36207;51.850;21.698;2023-05-25T06:05:17;100347.67;;;15.34;70.93
50310;BME280;36207;51.850;21.698;2023-05-25T06:07:43;100352.36;;;15.37;71.00
50310;BME280;36207;51.850;21.698;2023-05-25T06:10:09;100354.19;;;15.38;70.92
50310;BME280;36207;51.850;21.698;2023-05-25T06:12:35;100358.08;;;15.37;70.94
50310;BME280;36207;51.850;21.698;2023-05-25T06:15:01;100360.05;;;15.36;71.16
50310;BME280;36207;51.850;21.698;2023-05-25T06:17:28;100357.56;;;15.34;71.04
50310;BME280;36207;51.850;21.698;2023-05-25T06:19:55;100355.20;;;15.34;71.16
50310;BME280;36207;51.850;21.698;2023-05-25T06:22:21;100354.46;;;15.34;71.42
50310;BME280;36207;51.850;21.698;2023-05-25T06:24:48;100356.00;;;15.34;71.40
50310;BME280;36207;51.850;21.698;2023-05-25T06:27:14;100355.86;;;15.34;71.05
50310;BME280;36207;51.850;21.698;2023-05-25T06:29:42;100355.63;;;15.35;71.26
50310;BME280;36207;51.850;21.698;2023-05-25T06:32:08;100357.83;;;15.40;71.11
50310;BME280;36207;51.850;21.698;2023-05-25T06:34:36;100361.13;;;15.47;71.28
50310;BME280;36207;51.850;21.698;2023-05-25T06:37:02;100366.58;;;15.52;71.17
50310;BME280;36207;51.850;21.698;2023-05-25T06:39:28;100367.73;;;15.55;71.27
50310;BME280;36207;51.850;21.698;2023-05-25T06:41:54;100368.91;;;15.57;71.34
50310;BME280;36207;51.850;21.698;2023-05-25T06:44:20;100373.30;;;15.58;71.45
50310;BME280;36207;51.850;21.698;2023-05-25T06:46:46;100373.64;;;15.56;71.34
50310;BME280;36207;51.850;21.698;2023-05-25T06:49:12;100377.67;;;15.57;71.49
50310;BME280;36207;51.850;21.698;2023-05-25T06:51:38;100380.04;;;15.57;71.11
50310;BME280;36207;51.850;21.698;2023-05-25T06:54:04;100382.77;;;15.55;71.50
50310;BME280;36207;51.850;21.698;2023-05-25T06:56:30;100381.44;;;15.52;71.35
50310;BME280;36207;51.850;21.698;2023-05-25T06:58:56;100385.90;;;15.52;71.33
50310;BME280;36207;51.850;21.698;2023-05-25T07:01:22;100385.71;;;15.56;71.40
50310;BME280;36207;51.850;21.698;2023-05-25T07:03:48;100389.23;;;15.60;71.26
50310;BME280;36207;51.850;21.698;2023-05-25T07:06:14;100390.29;;;15.65;71.32
50310;BME280;36207;51.850;21.698;2023-05-25T07:08:41;100391.16;;;15.70;71.60
50310;BME280;36207;51.850;21.698;2023-05-25T07:11:07;100392.79;;;15.70;71.65
50310;BME280;36207;51.850;21.698;2023-05-25T07:13:39;100396.43;;;15.72;71.47
50310;BME280;36207;51.850;21.698;2023-05-25T07:16:05;100397.02;;;15.78;71.19
50310;BME280;36207;51.850;21.698;2023-05-25T07:18:31;100396.54;;;15.82;71.19
50310;BME280;36207;51.850;21.698;2023-05-25T07:20:57;100398.06;;;15.85;71.32
50310;BME280;36207;51.850;21.698;2023-05-25T07:23:23;100397.34;;;15.88;71.42
50310;BME280;36207;51.850;21.698;2023-05-25T07:25:49;100395.92;;;15.90;71.40
50310;BME280;36207;51.850;21.698;2023-05-25T07:28:15;100399.54;;;15.93;71.22
50310;BME280;36207;51.850;21.698;2023-05-25T07:30:41;100397.68;;;15.96;71.53
50310;BME280;36207;51.850;21.698;2023-05-25T07:33:07;100400.70;;;15.99;71.38
50310;BME280;36207;51.850;21.698;2023-05-25T07:35:33;100402.33;;;16.03;71.29
50310;BME280;36207;51.850;21.698;2023-05-25T07:38:01;100398.73;;;16.06;71.38
50310;BME280;36207;51.850;21.698;2023-05-25T07:40:29;100395.37;;;16.08;71.51
50310;BME280;36207;51.850;21.698;2023-05-25T07:42:55;100395.20;;;16.12;71.41
50310;BME280;36207;51.850;21.698;2023-05-25T07:45:21;100393.54;;;16.16;71.20
50310;BME280;36207;51.850;21.698;2023-05-25T07:47:48;100392.42;;;16.22;71.21
50310;BME280;36207;51.850;21.698;2023-05-25T07:50:14;100392.19;;;16.26;71.40
50310;BME280;36207;51.850;21.698;2023-05-25T07:52:41;100395.50;;;16.29;71.22
50310;BME280;36207;51.850;21.698;2023-05-25T07:55:07;100394.13;;;16.33;71.23
50310;BME280;36207;51.850;21.698;2023-05-25T07:57:34;100391.14;;;16.38;71.19
50310;BME280;36207;51.850;21.698;2023-05-25T08:00:01;100385.38;;;16.43;71.22
50310;BME280;36207;51.850;21.698;2023-05-25T08:02:27;100386.09;;;16.45;71.15
50310;BME280;36207;51.850;21.698;2023-05-25T08:04:53;100385.71;;;16.45;71.10
50310;BME280;36207;51.850;21.698;2023-05-25T08:07:19;100387.33;;;16.45;71.26
50310;BME280;36207;51.850;21.698;2023-05-25T08:09:45;100384.19;;;16.44;71.17
50310;BME280;36207;51.850;21.698;2023-05-25T08:12:12;100386.17;;;16.44;71.13
50310;BME280;36207;51.850;21.698;2023-05-25T08:14:38;100389.32;;;16.46;71.13
50310;BME280;36207;51.850;21.698;2023-05-25T08:17:04;100388.23;;;16.47;71.23
50310;BME280;36207;51.850;21.698;2023-05-25T08:19:30;100391.02;;;16.46;71.22
50310;BME280;36207;51.850;21.698;2023-05-25T08:21:57;100392.18;;;16.45;71.18
50310;BME280;36207;51.850;21.698;2023-05-25T08:24:23;100394.45;;;16.45;71.12
50310;BME280;36207;51.850;21.698;2023-05-25T08:26:49;100389.31;;;16.46;71.23
50310;BME280;36207;51.850;21.698;2023-05-25T08:29:17;100389.10;;;16.51;71.32
50310;BME280;36207;51.850;21.698;2023-05-25T08:31:43;100391.21;;;16.57;71.37
50310;BME280;36207;51.850;21.698;2023-05-25T08:34:14;100392.77;;;16.61;71.25
50310;BME280;36207;51.850;21.698;2023-05-25T08:36:41;100393.48;;;16.66;71.29
50310;BME280;36207;51.850;21.698;2023-05-25T08:39:08;100389.59;;;16.73;71.23
50310;BME280;36207;51.850;21.698;2023-05-25T08:41:36;100392.73;;;16.83;71.36
50310;BME280;36207;51.850;21.698;2023-05-25T08:44:05;100392.55;;;16.91;71.37
50310;BME280;36207;51.850;21.698;2023-05-25T08:46:33;100389.92;;;16.97;71.36
50310;BME280;36207;51.850;21.698;2023-05-25T08:49:06;100390.98;;;17.02;71.46
50310;BME280;36207;51.850;21.698;2023-05-25T08:51:40;100388.52;;;17.08;71.24
50310;BME280;36207;51.850;21.698;2023-05-25T08:54:09;100389.70;;;17.17;71.28
50310;BME280;36207;51.850;21.698;2023-05-25T08:56:54;100395.20;;;17.23;71.20
50310;BME280;36207;51.850;21.698;2023-05-25T09:04:51;100387.30;;;17.42;71.21
50310;BME280;36207;51.850;21.698;2023-05-25T09:07:18;100386.86;;;17.49;71.40
50310;BME280;36207;51.850;21.698;2023-05-25T09:09:45;100384.95;;;17.56;71.22
50310;BME280;36207;51.850;21.698;2023-05-25T09:12:14;100390.36;;;17.67;71.33
50310;BME280;36207;51.850;21.698;2023-05-25T09:14:40;100387.20;;;17.76;71.15
50310;BME280;36207;51.850;21.698;2023-05-25T09:17:12;100387.19;;;17.82;71.14
50310;BME280;36207;51.850;21.698;2023-05-25T09:19:38;100390.35;;;17.88;71.17
50310;BME280;36207;51.850;21.698;2023-05-25T09:22:04;100391.89;;;17.95;71.12
50310;BME280;36207;51.850;21.698;2023-05-25T09:24:31;100390.02;;;18.02;71.02
50310;BME280;36207;51.850;21.698;2023-05-25T09:26:58;100397.56;;;18.09;70.93
50310;BME280;36207;51.850;21.698;2023-05-25T09:29:25;100397.84;;;18.16;70.85
50310;BME280;36207;51.850;21.698;2023-05-25T09:31:52;100398.40;;;18.20;70.53
50310;BME280;36207;51.850;21.698;2023-05-25T09:34:21;100397.39;;;18.21;70.56
50310;BME280;36207;51.850;21.698;2023-05-25T09:36:47;100401.08;;;18.22;70.59
50310;BME280;36207;51.850;21.698;2023-05-25T09:39:13;100405.22;;;18.25;70.51
50310;BME280;36207;51.850;21.698;2023-05-25T09:41:40;100402.36;;;18.27;70.49
50310;BME280;36207;51.850;21.698;2023-05-25T09:44:07;100404.89;;;18.30;70.42
50310;BME280;36207;51.850;21.698;2023-05-25T09:46:33;100405.06;;;18.29;70.22
50310;BME280;36207;51.850;21.698;2023-05-25T09:49:09;100405.51;;;18.25;70.07
50310;BME280;36207;51.850;21.698;2023-05-25T09:51:35;100411.13;;;18.19;69.93
50310;BME280;36207;51.850;21.698;2023-05-25T09:54:03;100408.21;;;18.11;69.82
50310;BME280;36207;51.850;21.698;2023-05-25T09:56:32;100406.64;;;18.04;69.85
50310;BME280;36207;51.850;21.698;2023-05-25T09:58:58;100406.73;;;18.03;70.19
50310;BME280;36207;51.850;21.698;2023-05-25T10:01:24;100407.70;;;18.06;70.27
50310;BME280;36207;51.850;21.698;2023-05-25T10:03:52;100405.58;;;18.11;70.05
50310;BME280;36207;51.850;21.698;2023-05-25T10:06:22;100400.48;;;18.19;70.13
50310;BME280;36207;51.850;21.698;2023-05-25T10:08:48;100397.33;;;18.30;70.23
50310;BME280;36207;51.850;21.698;2023-05-25T10:11:15;100393.98;;;18.38;70.07
50310;BME280;36207;51.850;21.698;2023-05-25T10:13:44;100398.75;;;18.43;70.03
50310;BME280;36207;51.850;21.698;2023-05-25T10:16:14;100396.09;;;18.47;70.15
50310;BME280;36207;51.850;21.698;2023-05-25T10:18:47;100397.40;;;18.54;69.91
50310;BME280;36207;51.850;21.698;2023-05-25T10:21:18;100398.45;;;18.62;70.04
50310;BME280;36207;51.850;21.698;2023-05-25T10:23:47;100397.92;;;18.69;70.11
50310;BME280;36207;51.850;21.698;2023-05-25T10:26:21;100398.77;;;18.80;70.24
50310;BME280;36207;51.850;21.698;2023-05-25T10:28:50;100400.59;;;18.96;70.38
50310;BME280;36207;51.850;21.698;2023-05-25T10:31:22;100398.09;;;19.12;70.45
50310;BME280;36207;51.850;21.698;2023-05-25T10:33:52;100396.79;;;19.27;70.19
50310;BME280;36207;51.850;21.698;2023-05-25T10:36:21;100397.70;;;19.40;69.99
50310;BME280;36207;51.850;21.698;2023-05-25T10:38:51;100400.88;;;19.49;69.77
50310;BME280;36207;51.850;21.698;2023-05-25T10:41:19;100400.98;;;19.51;69.45
50310;BME280;36207;51.850;21.698;2023-05-25T10:43:48;100396.83;;;19.52;69.49
50310;BME280;36207;51.850;21.698;2023-05-25T10:46:15;100393.52;;;19.56;69.92
50310;BME280;36207;51.850;21.698;2023-05-25T10:48:47;100393.16;;;19.63;69.87
50310;BME280;36207;51.850;21.698;2023-05-25T10:51:14;100392.55;;;19.72;69.87
50310;BME280;36207;51.850;21.698;2023-05-25T10:53:58;100389.11;;;19.82;69.62
50310;BME280;36207;51.850;21.698;2023-05-25T10:56:29;100390.79;;;19.92;69.80
50310;BME280;36207;51.850;21.698;2023-05-25T10:58:56;100389.80;;;20.01;69.77
50310;BME280;36207;51.850;21.698;2023-05-25T11:01:23;100393.55;;;20.11;69.57
50310;BME280;36207;51.850;21.698;2023-05-25T11:03:53;100392.86;;;20.18;69.61
50310;BME280;36207;51.850;21.698;2023-05-25T11:09:42;100389.82;;;20.43;69.53
50310;BME280;36207;51.850;21.698;2023-05-25T11:12:21;100392.27;;;20.55;69.12
50310;BME280;36207;51.850;21.698;2023-05-25T11:15:13;100390.64;;;20.65;69.38
50310;BME280;36207;51.850;21.698;2023-05-25T11:17:59;100391.43;;;20.81;69.70
50310;BME280;36207;51.850;21.698;2023-05-25T11:24:12;100387.92;;;21.15;69.24
50310;BME280;36207;51.850;21.698;2023-05-25T11:26:52;100383.79;;;21.27;69.27
50310;BME280;36207;51.850;21.698;2023-05-25T11:29:20;100381.73;;;21.38;68.65
50310;BME280;36207;51.850;21.698;2023-05-25T11:31:53;100378.24;;;21.42;68.31
50310;BME280;36207;51.850;21.698;2023-05-25T11:34:21;100373.35;;;21.48;68.86
50310;BME280;36207;51.850;21.698;2023-05-25T11:36:53;100375.05;;;21.55;68.57
50310;BME280;36207;51.850;21.698;2023-05-25T11:39:20;100373.11;;;21.59;68.53
50310;BME280;36207;51.850;21.698;2023-05-25T11:41:52;100375.90;;;21.65;68.47
50310;BME280;36207;51.850;21.698;2023-05-25T11:44:33;100376.96;;;21.73;68.51
50310;BME280;36207;51.850;21.698;2023-05-25T11:47:08;100376.80;;;21.79;67.84
50310;BME280;36207;51.850;21.698;2023-05-25T11:49:42;100377.98;;;21.81;68.18
50310;BME280;36207;51.850;21.698;2023-05-25T11:52:15;100373.55;;;21.89;68.35
50310;BME280;36207;51.850;21.698;2023-05-25T11:54:45;100376.02;;;22.00;68.52
50310;BME280;36207;51.850;21.698;2023-05-25T11:57:19;100373.79;;;22.12;68.45
50310;BME280;36207;51.850;21.698;2023-05-25T11:59:52;100370.48;;;22.21;67.92
50310;BME280;36207;51.850;21.698;2023-05-25T12:02:19;100363.43;;;22.29;67.99
50310;BME280;36207;51.850;21.698;2023-05-25T12:04:53;100358.30;;;22.37;68.06
50310;BME280;36207;51.850;21.698;2023-05-25T12:07:20;100359.70;;;22.45;68.04
50310;BME280;36207;51.850;21.698;2023-05-25T12:09:47;100356.60;;;22.60;68.52
50310;BME280;36207;51.850;21.698;2023-05-25T12:12:13;100355.19;;;22.80;68.51
50310;BME280;36207;51.850;21.698;2023-05-25T12:14:49;100351.40;;;23.01;68.72
50310;BME280;36207;51.850;21.698;2023-05-25T12:17:16;100351.69;;;23.25;68.49
50310;BME280;36207;51.850;21.698;2023-05-25T12:19:43;100350.93;;;23.45;68.43
50310;BME280;36207;51.850;21.698;2023-05-25T12:22:10;100346.04;;;23.62;67.94
50310;BME280;36207;51.850;21.698;2023-05-25T12:24:39;100343.50;;;23.80;67.89
50310;BME280;36207;51.850;21.698;2023-05-25T12:27:17;100339.70;;;23.94;67.35
50310;BME280;36207;51.850;21.698;2023-05-25T12:29:48;100338.71;;;24.06;67.04
50310;BME280;36207;51.850;21.698;2023-05-25T12:32:15;100335.30;;;24.16;66.95
50310;BME280;36207;51.850;21.698;2023-05-25T12:34:41;100332.20;;;24.25;67.06
50310;BME280;36207;51.850;21.698;2023-05-25T12:37:20;100334.39;;;24.32;66.45
50310;BME280;36207;51.850;21.698;2023-05-25T12:39:50;100334.56;;;24.28;65.94
50310;BME280;36207;51.850;21.698;2023-05-25T12:42:16;100336.35;;;24.25;65.77
50310;BME280;36207;51.850;21.698;2023-05-25T12:44:45;100328.69;;;24.22;65.18
50310;BME280;36207;51.850;21.698;2023-05-25T12:47:20;100327.71;;;24.15;65.27
50310;BME280;36207;51.850;21.698;2023-05-25T12:49:53;100323.44;;;24.06;64.94
50310;BME280;36207;51.850;21.698;2023-05-25T12:52:37;100319.48;;;24.02;65.20
50310;BME280;36207;51.850;21.698;2023-05-25T12:55:24;100319.90;;;24.08;65.48
50310;BME280;36207;51.850;21.698;2023-05-25T12:57:52;100318.27;;;24.15;64.96
50310;BME280;36207;51.850;21.698;2023-05-25T13:00:22;100314.29;;;24.15;64.85